Time;durP1;ratioP1;P1;durP2;ratioP2;P2;SDS_P1;SDS_P2;PMS_P1;PMS_P2;Temp;Humidity;BMP_temperature;BMP_pressure;BME280_temperature;BME280_humidity;BME280_pressure;Samples;Min_cycle;Max_cycle;Signal;HPM_P1;HPM_P2
2023/06/05 00:01:43;;;;;;;6.32;4.20;;;12.70;99.90;;;;;;5065719;28;20037;-62
2023/06/05 00:04:09;;;;;;;7.40;4.57;;;12.60;99.90;;;;;;5044977;28;20086;-62
2023/06/05 00:06:37;;;;;;;6.72;4.57;;;12.70;99.90;;;;;;5052252;28;20044;-62
2023/06/05 00:09:04;;;;;;;9.75;4.15;;;12.60;99.90;;;;;;5059654;28;20041;-62
2023/06/05 00:11:30;;;;;;;6.28;3.92;;;12.70;99.90;;;;;;5020083;28;20126;-61
2023/06/05 00:14:00;;;;;;;5.05;4.20;;;12.70;99.90;;;;;;5049271;28;20041;-62
2023/06/05 00:16:26;;;;;;;5.60;4.50;;;12.70;99.90;;;;;;5050364;28;20535;-62
2023/06/05 00:18:52;;;;;;;6.47;4.03;;;12.70;99.90;;;;;;5037980;28;20054;-62
2023/06/05 00:21:19;;;;;;;6.53;4.15;;;12.70;99.90;;;;;;5065550;28;20081;-62
2023/06/05 00:23:45;;;;;;;5.88;3.80;;;12.70;99.90;;;;;;5049129;28;20606;-62
2023/06/05 00:26:11;;;;;;;7.88;4.30;;;12.70;99.90;;;;;;5048602;28;20115;-62
2023/06/05 00:28:38;;;;;;;7.35;4.00;;;12.80;99.90;;;;;;5050702;28;20052;-62
2023/06/05 00:31:05;;;;;;;5.25;4.43;;;12.80;99.90;;;;;;5059062;28;20094;-62
2023/06/05 00:33:31;;;;;;;6.03;4.22;;;12.80;99.90;;;;;;5048732;28;20052;-62
2023/06/05 00:36:00;;;;;;;7.40;4.32;;;12.80;99.90;;;;;;5038841;28;20047;-62
2023/06/05 00:38:26;;;;;;;5.80;3.95;;;12.80;99.90;;;;;;5031450;28;20040;-62
2023/06/05 00:40:52;;;;;;;7.53;3.42;;;12.80;99.90;;;;;;5045741;28;20049;-62
2023/06/05 00:43:18;;;;;;;6.32;4.13;;;12.80;99.90;;;;;;5060970;28;20084;-62
2023/06/05 00:45:43;;;;;;;5.40;3.28;;;12.80;99.90;;;;;;5033066;28;20129;-62
2023/06/05 00:48:10;;;;;;;4.93;3.20;;;12.80;99.90;;;;;;5017930;28;20051;-62
2023/06/05 00:50:36;;;;;;;5.10;3.60;;;12.80;99.90;;;;;;5056868;28;20458;-62
2023/06/05 00:53:03;;;;;;;5.70;3.45;;;12.90;99.90;;;;;;5052274;28;20060;-61
2023/06/05 00:55:29;;;;;;;4.78;3.17;;;12.80;99.90;;;;;;5025088;28;20040;-62
2023/06/05 00:57:56;;;;;;;5.10;3.20;;;12.80;99.90;;;;;;5034254;28;20490;-62
2023/06/05 01:11:57;;;;;;;3.60;2.53;;;12.80;99.90;;;;;;5061607;28;20037;-62
2023/06/05 01:14:30;;;;;;;3.88;3.00;;;12.80;99.90;;;;;;5062740;28;20049;-61
2023/06/05 01:17:00;;;;;;;6.72;2.60;;;12.80;99.90;;;;;;5063209;28;20039;-62
2023/06/05 01:19:31;;;;;;;3.78;2.47;;;12.90;99.90;;;;;;5055868;28;20451;-62
2023/06/05 01:22:01;;;;;;;4.05;2.50;;;12.90;99.90;;;;;;5031458;28;20041;-62
2023/06/05 01:24:28;;;;;;;4.10;2.72;;;12.90;99.90;;;;;;5068969;28;20077;-62
2023/06/05 01:27:17;;;;;;;3.67;2.33;;;12.90;99.90;;;;;;5065917;28;20124;-63
2023/06/05 01:30:03;;;;;;;5.93;2.70;;;12.90;99.90;;;;;;5035051;28;20040;-61
2023/06/05 01:33:03;;;;;;;4.78;2.67;;;12.80;99.90;;;;;;5056164;28;20048;-63
2023/06/05 01:35:33;;;;;;;4.90;2.40;;;12.90;99.90;;;;;;5065798;28;20135;-62
2023/06/05 01:38:05;;;;;;;3.72;2.25;;;12.90;99.90;;;;;;5034917;28;20040;-61
2023/06/05 01:40:32;;;;;;;4.88;2.67;;;12.90;99.90;;;;;;5069728;28;20028;-62
2023/06/05 01:43:00;;;;;;;3.70;2.80;;;12.90;99.90;;;;;;5050901;28;20580;-63
2023/06/05 01:45:26;;;;;;;3.30;2.20;;;12.90;99.90;;;;;;5051885;28;20423;-64
2023/06/05 01:47:53;;;;;;;3.25;2.47;;;12.90;99.90;;;;;;5061834;28;20051;-62
2023/06/05 01:50:19;;;;;;;4.78;2.95;;;12.90;99.90;;;;;;5034630;28;20040;-62
2023/06/05 01:52:46;;;;;;;5.68;2.30;;;12.90;99.90;;;;;;5061891;28;20122;-62
2023/06/05 01:55:23;;;;;;;4.00;2.45;;;12.90;99.90;;;;;;5066232;28;20114;-62
2023/06/05 01:57:50;;;;;;;6.60;2.95;;;12.90;99.90;;;;;;5043268;28;20038;-62
2023/06/05 02:00:17;;;;;;;4.70;2.97;;;12.90;99.90;;;;;;5064429;28;20044;-63
2023/06/05 02:02:44;;;;;;;3.60;2.45;;;12.90;99.90;;;;;;5052371;28;20043;-63
2023/06/05 02:05:12;;;;;;;3.67;2.63;;;12.90;99.90;;;;;;5068502;28;20037;-62
2023/06/05 02:07:47;;;;;;;6.95;2.75;;;12.90;99.90;;;;;;5028902;28;20045;-62
2023/06/05 02:10:13;;;;;;;6.10;2.80;;;12.80;99.90;;;;;;5033380;28;20087;-62
2023/06/05 02:12:42;;;;;;;5.78;3.40;;;12.80;99.90;;;;;;5056614;28;20071;-62
2023/06/05 02:15:12;;;;;;;5.95;3.55;;;12.80;99.90;;;;;;5063224;28;20123;-63
2023/06/05 02:17:39;;;;;;;4.55;3.15;;;12.80;99.90;;;;;;5048733;28;20052;-62
2023/06/05 02:20:06;;;;;;;5.78;2.97;;;12.90;99.90;;;;;;5051606;28;20047;-62
2023/06/05 02:22:32;;;;;;;4.88;3.60;;;12.90;99.90;;;;;;5069703;28;20476;-62
2023/06/05 02:24:58;;;;;;;7.45;4.45;;;12.90;99.90;;;;;;5067396;28;20055;-63
2023/06/05 02:27:24;;;;;;;5.85;4.30;;;12.90;99.90;;;;;;5075515;28;20041;-62
2023/06/05 02:29:52;;;;;;;6.13;3.95;;;12.90;99.90;;;;;;5051394;28;20036;-62
2023/06/05 02:32:19;;;;;;;8.88;5.03;;;12.90;99.90;;;;;;5068641;28;20480;-63
2023/06/05 02:34:46;;;;;;;5.78;4.63;;;12.90;99.90;;;;;;5053898;28;20041;-62
2023/06/05 02:37:15;;;;;;;6.60;4.28;;;12.90;99.90;;;;;;5069340;28;20040;-62
2023/06/05 02:39:40;;;;;;;6.63;4.05;;;12.90;99.90;;;;;;5050918;28;20668;-62
2023/06/05 02:42:08;;;;;;;7.00;4.68;;;12.90;99.90;;;;;;5064333;28;20036;-62
2023/06/05 02:44:34;;;;;;;5.15;3.72;;;12.80;99.90;;;;;;5032114;28;20047;-62
2023/06/05 02:47:00;;;;;;;8.00;5.05;;;12.80;99.90;;;;;;5024663;28;20116;-62
2023/06/05 02:49:26;;;;;;;8.10;4.72;;;12.80;99.90;;;;;;5068583;28;20555;-61
2023/06/05 02:51:51;;;;;;;7.38;4.82;;;12.90;99.90;;;;;;5053507;28;20070;-61
2023/06/05 02:54:17;;;;;;;8.65;5.15;;;12.80;99.90;;;;;;5060552;28;20047;-62
2023/06/05 02:56:44;;;;;;;6.88;4.80;;;12.80;99.90;;;;;;5067802;28;20047;-62
2023/06/05 02:59:09;;;;;;;6.72;4.55;;;12.80;99.90;;;;;;5049665;28;20041;-62
2023/06/05 03:01:38;;;;;;;6.68;5.03;;;12.90;99.90;;;;;;5065999;28;20043;-62
2023/06/05 03:04:04;;;;;;;9.00;5.60;;;12.80;99.90;;;;;;5051959;28;20122;-63
2023/06/05 03:06:33;;;;;;;9.70;4.88;;;12.80;99.90;;;;;;5054651;28;20120;-62
2023/06/05 03:08:59;;;;;;;5.72;4.55;;;12.90;99.90;;;;;;5050035;28;20086;-61
2023/06/05 03:11:26;;;;;;;7.03;5.20;;;12.90;99.90;;;;;;5046796;28;20488;-62
2023/06/05 03:13:52;;;;;;;6.85;4.88;;;12.90;99.90;;;;;;5036660;28;20083;-62
2023/06/05 03:16:23;;;;;;;9.10;4.63;;;12.90;99.90;;;;;;5040380;28;20411;-62
2023/06/05 03:18:48;;;;;;;7.30;4.80;;;12.80;99.90;;;;;;5058688;28;20625;-63
2023/06/05 03:21:14;;;;;;;6.95;4.80;;;12.80;99.90;;;;;;5038561;28;20068;-62
2023/06/05 03:23:40;;;;;;;7.57;5.30;;;12.80;99.90;;;;;;5033693;28;20395;-62
2023/06/05 03:26:08;;;;;;;6.88;5.53;;;12.80;99.90;;;;;;5050103;28;20036;-62
2023/06/05 03:28:34;;;;;;;7.30;4.85;;;12.80;99.90;;;;;;5070405;28;20663;-62
2023/06/05 03:31:00;;;;;;;7.10;4.75;;;12.80;99.90;;;;;;5025086;28;20040;-62
2023/06/05 03:33:26;;;;;;;5.85;4.30;;;12.80;99.90;;;;;;5034815;28;20044;-63
2023/06/05 03:35:52;;;;;;;10.90;5.75;;;12.80;99.90;;;;;;5063876;28;20077;-62
2023/06/05 03:38:18;;;;;;;7.10;4.72;;;12.80;99.90;;;;;;5050044;28;20127;-62
2023/06/05 03:40:44;;;;;;;7.18;4.32;;;12.80;99.90;;;;;;5060974;28;20626;-64
2023/06/05 03:43:12;;;;;;;6.38;3.50;;;12.80;99.90;;;;;;5065791;28;20431;-62
2023/06/05 03:45:40;;;;;;;5.32;3.85;;;12.80;99.90;;;;;;5064351;28;20028;-63
2023/06/05 03:48:06;;;;;;;8.75;5.13;;;12.80;99.90;;;;;;5046147;28;20052;-62
2023/06/05 03:50:33;;;;;;;5.82;3.85;;;12.90;99.90;;;;;;5064676;28;20051;-62
2023/06/05 03:53:03;;;;;;;4.90;3.50;;;12.90;99.90;;;;;;5033558;28;20167;-63
2023/06/05 03:55:41;;;;;;;4.10;3.28;;;12.90;99.90;;;;;;5030882;28;20041;-63
2023/06/05 03:58:17;;;;;;;5.05;3.22;;;12.90;99.90;;;;;;5043596;28;20045;-62
2023/06/05 04:00:50;;;;;;;12.20;3.53;;;12.90;99.90;;;;;;5067364;28;20097;-63
2023/06/05 04:03:16;;;;;;;4.97;3.13;;;12.80;99.90;;;;;;5067941;28;20059;-62
2023/06/05 04:05:42;;;;;;;5.15;2.72;;;12.80;99.90;;;;;;5066873;28;20526;-62
2023/06/05 04:08:09;;;;;;;5.43;2.72;;;12.80;99.90;;;;;;5058056;28;20075;-63
2023/06/05 04:10:36;;;;;;;5.40;2.88;;;12.80;99.90;;;;;;5065916;28;20045;-63
2023/06/05 04:13:02;;;;;;;3.05;2.42;;;12.80;99.90;;;;;;5063348;28;20178;-63
2023/06/05 04:15:28;;;;;;;3.58;2.63;;;12.80;99.90;;;;;;5048092;28;20038;-63
2023/06/05 04:17:55;;;;;;;3.75;2.60;;;12.70;99.90;;;;;;5046299;28;20044;-63
2023/06/05 04:20:21;;;;;;;5.13;2.50;;;12.80;99.90;;;;;;5034281;28;20435;-63
2023/06/05 04:22:50;;;;;;;4.63;2.45;;;12.80;99.90;;;;;;5047781;28;20072;-63
2023/06/05 04:25:17;;;;;;;5.20;2.50;;;12.80;99.90;;;;;;5059101;28;20047;-63
2023/06/05 04:27:44;;;;;;;3.72;2.53;;;12.80;99.90;;;;;;5040000;28;20052;-63
2023/06/05 04:30:12;;;;;;;3.33;2.45;;;12.80;99.90;;;;;;5026709;28;20489;-63
2023/06/05 04:32:42;;;;;;;3.72;2.45;;;12.80;99.90;;;;;;5047060;28;20400;-63
2023/06/05 04:35:10;;;;;;;7.28;2.83;;;12.80;99.90;;;;;;5068493;28;20520;-63
2023/06/05 04:37:39;;;;;;;4.32;3.00;;;12.70;99.90;;;;;;5056830;28;20036;-62
2023/06/05 04:40:07;;;;;;;4.15;2.50;;;12.70;99.90;;;;;;5027513;28;20037;-63
2023/06/05 04:42:34;;;;;;;3.60;2.38;;;12.80;99.90;;;;;;5061428;28;20065;-63
2023/06/05 04:45:03;;;;;;;3.40;2.40;;;12.80;99.90;;;;;;5062692;28;20527;-62
2023/06/05 04:47:30;;;;;;;4.30;2.55;;;12.80;99.90;;;;;;5062346;28;20029;-63
2023/06/05 04:50:00;;;;;;;4.70;2.53;;;12.80;99.90;;;;;;5043252;28;20041;-63
2023/06/05 04:52:26;;;;;;;3.80;2.70;;;12.80;99.90;;;;;;5057086;28;20093;-63
2023/06/05 04:54:52;;;;;;;4.68;2.80;;;12.90;99.90;;;;;;5057377;28;20057;-63
2023/06/05 04:57:18;;;;;;;2.85;2.30;;;12.90;99.90;;;;;;5066485;28;20114;-64
2023/06/05 04:59:44;;;;;;;4.07;2.30;;;12.90;99.90;;;;;;5064404;28;20068;-63
2023/06/05 05:02:10;;;;;;;4.85;2.50;;;12.90;99.90;;;;;;5042310;28;21324;-63
2023/06/05 05:04:36;;;;;;;3.33;2.30;;;12.90;99.90;;;;;;5059056;28;20552;-63
2023/06/05 05:07:06;;;;;;;3.88;2.30;;;13.00;99.90;;;;;;5046891;28;20165;-63
2023/06/05 05:09:32;;;;;;;4.10;2.38;;;13.00;99.90;;;;;;5087671;23;20037;-56
2023/06/05 05:11:58;;;;;;;4.03;2.70;;;13.00;99.90;;;;;;5090897;28;20044;-56
2023/06/05 05:14:27;;;;;;;4.47;2.50;;;13.00;99.90;;;;;;5068621;28;20070;-56
2023/06/05 05:16:52;;;;;;;4.45;2.30;;;13.00;99.90;;;;;;5068322;28;20426;-56
2023/06/05 05:19:22;;;;;;;3.20;2.42;;;13.10;99.90;;;;;;5071302;28;20085;-56
2023/06/05 05:21:48;;;;;;;3.78;2.15;;;13.10;99.90;;;;;;5068904;28;20044;-56
2023/06/05 05:24:14;;;;;;;4.13;2.15;;;13.10;99.90;;;;;;5083662;23;20177;-60
2023/06/05 05:26:39;;;;;;;2.47;1.92;;;13.10;99.90;;;;;;5035606;28;20479;-58
2023/06/05 05:29:06;;;;;;;3.80;2.38;;;13.20;99.90;;;;;;5070127;28;20040;-58
2023/06/05 05:31:32;;;;;;;5.03;2.45;;;13.20;99.90;;;;;;5085992;28;20075;-59
2023/06/05 05:33:58;;;;;;;4.72;2.33;;;13.20;99.90;;;;;;5065744;28;20095;-59
2023/06/05 05:36:27;;;;;;;2.20;1.73;;;13.30;99.90;;;;;;5075573;28;20398;-59
2023/06/05 05:38:53;;;;;;;3.60;1.90;;;13.30;99.90;;;;;;5072705;28;20044;-59
2023/06/05 05:41:20;;;;;;;3.35;2.15;;;13.30;99.90;;;;;;5065564;28;20186;-62
2023/06/05 05:43:46;;;;;;;3.38;1.92;;;13.30;99.90;;;;;;5067428;28;20072;-60
2023/06/05 05:46:13;;;;;;;3.38;2.20;;;13.30;99.90;;;;;;5067261;28;20040;-59
2023/06/05 05:48:38;;;;;;;3.90;2.15;;;13.40;99.90;;;;;;5052377;28;20459;-59
2023/06/05 05:51:06;;;;;;;4.70;2.45;;;13.40;99.90;;;;;;5064633;28;20040;-60
2023/06/05 05:53:31;;;;;;;3.95;2.60;;;13.40;99.90;;;;;;5065818;28;20165;-60
2023/06/05 05:55:57;;;;;;;3.53;2.20;;;13.50;99.90;;;;;;5068794;28;20119;-60
2023/06/05 05:58:23;;;;;;;3.90;2.50;;;13.50;99.90;;;;;;5072118;28;20051;-59
2023/06/05 06:00:49;;;;;;;5.60;2.20;;;13.60;99.90;;;;;;5081251;28;20041;-58
2023/06/05 06:03:16;;;;;;;4.90;2.28;;;13.60;99.90;;;;;;5069533;28;20120;-61
2023/06/05 06:05:42;;;;;;;4.07;2.35;;;13.60;99.90;;;;;;5052487;28;20263;-61
2023/06/05 06:08:08;;;;;;;3.28;2.17;;;13.70;99.90;;;;;;5066244;28;20051;-61
2023/06/05 06:10:34;;;;;;;4.30;2.38;;;13.70;99.90;;;;;;5063958;28;20036;-61
2023/06/05 06:13:00;;;;;;;4.15;1.90;;;13.60;99.90;;;;;;5064820;28;20127;-61
2023/06/05 06:15:27;;;;;;;3.17;2.40;;;13.70;99.90;;;;;;5057350;28;20052;-61
2023/06/05 06:17:52;;;;;;;3.78;1.92;;;13.70;99.90;;;;;;5065868;28;20056;-60
2023/06/05 06:20:18;;;;;;;3.70;2.03;;;13.70;99.90;;;;;;5061291;28;20090;-60
2023/06/05 06:22:44;;;;;;;4.03;2.60;;;13.80;99.90;;;;;;5068316;28;20135;-61
2023/06/05 06:25:15;;;;;;;9.60;3.22;;;13.80;99.90;;;;;;5067570;28;20116;-61
2023/06/05 06:27:43;;;;;;;4.82;3.10;;;13.80;99.90;;;;;;5064551;28;20148;-60
2023/06/05 06:30:10;;;;;;;5.53;3.05;;;13.80;99.90;;;;;;5065010;28;20033;-60
2023/06/05 06:32:35;;;;;;;6.82;3.45;;;13.80;99.90;;;;;;5046852;28;20043;-60
2023/06/05 06:35:01;;;;;;;5.13;2.83;;;13.80;99.90;;;;;;5062388;28;20115;-60
2023/06/05 06:37:28;;;;;;;5.90;2.80;;;13.80;99.90;;;;;;5061654;28;20462;-60
2023/06/05 06:39:54;;;;;;;5.20;3.13;;;13.90;99.90;;;;;;5067693;28;20517;-60
2023/06/05 06:42:22;;;;;;;4.22;2.75;;;13.90;99.90;;;;;;5068128;28;20064;-61
2023/06/05 06:44:48;;;;;;;4.25;3.05;;;13.90;99.90;;;;;;5062898;28;20365;-60
2023/06/05 06:47:19;;;;;;;4.60;3.20;;;13.90;99.90;;;;;;5060713;28;20028;-60
2023/06/05 06:49:45;;;;;;;6.85;3.25;;;13.90;99.90;;;;;;5076223;28;20048;-61
2023/06/05 06:52:11;;;;;;;5.70;3.10;;;13.90;99.90;;;;;;5073066;28;20496;-61
2023/06/05 06:54:37;;;;;;;6.18;3.45;;;14.00;99.90;;;;;;5071026;28;20580;-60
2023/06/05 06:57:08;;;;;;;7.78;3.10;;;14.00;99.90;;;;;;5065456;28;20123;-60
2023/06/05 06:59:36;;;;;;;5.47;3.78;;;14.10;99.90;;;;;;5050242;28;20037;-61
2023/06/05 07:02:29;;;;;;;8.70;3.75;;;14.10;99.90;;;;;;5077998;28;20143;-60
2023/06/05 07:04:54;;;;;;;7.38;3.55;;;14.20;99.90;;;;;;5071947;28;20418;-60
2023/06/05 07:07:21;;;;;;;4.65;3.60;;;14.20;99.90;;;;;;5068938;28;20434;-60
2023/06/05 07:09:52;;;;;;;6.63;3.75;;;14.20;99.90;;;;;;5061227;28;20053;-61
2023/06/05 07:12:20;;;;;;;6.65;3.50;;;14.30;99.90;;;;;;5060032;28;20072;-61
2023/06/05 07:14:46;;;;;;;5.93;3.78;;;14.40;99.90;;;;;;5071350;28;20040;-60
2023/06/05 07:17:12;;;;;;;6.40;3.58;;;14.40;99.90;;;;;;5068681;28;20521;-60
2023/06/05 07:19:38;;;;;;;6.80;3.78;;;14.50;99.90;;;;;;5066025;28;20044;-60
2023/06/05 07:22:05;;;;;;;5.25;3.28;;;14.50;99.90;;;;;;5067717;28;20558;-61
2023/06/05 07:24:32;;;;;;;8.30;3.70;;;14.60;99.90;;;;;;5068708;28;20036;-61
2023/06/05 07:27:00;;;;;;;4.72;3.03;;;14.70;99.90;;;;;;5073138;28;20036;-61
2023/06/05 07:29:30;;;;;;;5.32;3.47;;;14.60;99.90;;;;;;5067865;28;20047;-60
2023/06/05 07:31:57;;;;;;;4.93;3.30;;;14.60;99.90;;;;;;5078912;28;20900;-61
2023/06/05 07:34:24;;;;;;;5.18;3.75;;;14.60;99.90;;;;;;5068045;28;20049;-61
2023/06/05 07:36:51;;;;;;;5.05;3.35;;;14.80;99.90;;;;;;5065961;28;20048;-61
2023/06/05 07:39:19;;;;;;;8.55;3.38;;;14.80;99.90;;;;;;5065500;28;20049;-61
2023/06/05 07:41:45;;;;;;;8.88;3.60;;;14.80;99.90;;;;;;5072499;28;20114;-62
2023/06/05 07:44:15;;;;;;;5.30;3.55;;;14.90;99.90;;;;;;5044987;28;20052;-62
2023/06/05 07:46:46;;;;;;;5.63;3.50;;;14.90;99.90;;;;;;5066144;28;20442;-62
2023/06/05 07:49:12;;;;;;;5.68;3.50;;;14.90;99.90;;;;;;5049869;28;20740;-61
2023/06/05 07:51:39;;;;;;;7.07;3.50;;;14.80;99.90;;;;;;5064677;28;20456;-61
2023/06/05 07:54:13;;;;;;;4.68;3.53;;;14.80;99.90;;;;;;5114715;27;20388;-56
2023/06/05 07:56:39;;;;;;;6.20;3.85;;;14.90;99.90;;;;;;5081789;28;20297;-56
2023/06/05 07:59:07;;;;;;;5.43;3.20;;;15.00;99.90;;;;;;5099416;28;20036;-56
2023/06/05 08:01:37;;;;;;;6.85;3.85;;;15.10;99.90;;;;;;5101925;28;20055;-57
2023/06/05 08:04:04;;;;;;;5.60;3.20;;;15.30;99.90;;;;;;5082991;28;20043;-57
2023/06/05 08:06:30;;;;;;;5.22;3.65;;;15.30;99.90;;;;;;5101519;22;20041;-61
2023/06/05 08:08:59;;;;;;;5.38;3.05;;;15.50;99.90;;;;;;5065818;28;20045;-61
2023/06/05 08:11:26;;;;;;;5.63;3.60;;;15.40;99.90;;;;;;5045736;28;20280;-62
2023/06/05 08:13:52;;;;;;;4.78;2.90;;;15.40;99.90;;;;;;5068544;28;20040;-61
2023/06/05 08:16:18;;;;;;;5.18;3.10;;;15.60;99.90;;;;;;5035519;28;20087;-62
2023/06/05 08:18:43;;;;;;;5.97;3.58;;;15.60;99.90;;;;;;5061908;28;20041;-61
2023/06/05 08:21:09;;;;;;;4.93;3.40;;;15.40;99.90;;;;;;5059603;28;20060;-60
2023/06/05 08:23:35;;;;;;;6.38;4.22;;;15.40;99.90;;;;;;5044407;28;20115;-62
2023/06/05 08:26:09;;;;;;;7.40;3.45;;;15.40;99.90;;;;;;5060869;28;20048;-60
2023/06/05 08:28:35;;;;;;;4.85;3.53;;;15.40;99.90;;;;;;5054289;28;20407;-61
2023/06/05 08:31:01;;;;;;;5.78;3.15;;;15.40;99.90;;;;;;5063227;28;20048;-58
2023/06/05 08:33:27;;;;;;;4.68;3.10;;;15.50;99.90;;;;;;5039875;28;20214;-59
2023/06/05 08:35:52;;;;;;;7.13;3.80;;;15.70;99.90;;;;;;5056137;28;20431;-59
2023/06/05 08:38:18;;;;;;;6.90;3.88;;;15.60;99.90;;;;;;5034333;28;20168;-60
2023/06/05 08:40:48;;;;;;;5.10;3.67;;;15.60;99.90;;;;;;5051681;28;20041;-59
2023/06/05 08:43:14;;;;;;;8.45;3.97;;;15.60;99.90;;;;;;5056242;28;20471;-60
2023/06/05 08:45:39;;;;;;;4.78;3.60;;;15.80;99.90;;;;;;5057314;28;20122;-61
2023/06/05 08:48:07;;;;;;;6.22;3.55;;;15.80;99.90;;;;;;5056177;28;20110;-61
2023/06/05 08:50:34;;;;;;;5.55;4.05;;;16.00;99.90;;;;;;5040418;28;20045;-61
2023/06/05 08:53:01;;;;;;;6.72;4.63;;;15.90;99.90;;;;;;5052906;28;20041;-64
2023/06/05 08:55:27;;;;;;;4.88;3.30;;;16.00;99.90;;;;;;5052861;28;20458;-60
2023/06/05 08:57:53;;;;;;;5.35;3.17;;;16.20;99.90;;;;;;5052946;28;20122;-63
2023/06/05 09:00:21;;;;;;;6.82;3.50;;;16.40;99.90;;;;;;5052657;28;20052;-64
2023/06/05 09:02:47;;;;;;;4.88;3.58;;;16.60;99.90;;;;;;5054630;28;20056;-64
2023/06/05 09:05:19;;;;;;;6.97;4.03;;;16.60;99.90;;;;;;5048138;28;20140;-62
2023/06/05 09:07:45;;;;;;;5.13;3.25;;;16.80;99.90;;;;;;5045695;28;20037;-64
2023/06/05 09:10:28;;;;;;;7.25;3.22;;;17.00;99.90;;;;;;5023828;28;20186;-63
2023/06/05 09:12:59;;;;;;;6.25;3.50;;;17.20;99.90;;;;;;5035288;28;20033;-64
2023/06/05 09:15:26;;;;;;;6.15;3.00;;;17.40;99.90;;;;;;5022990;28;20044;-63
2023/06/05 09:18:15;;;;;;;4.30;3.38;;;17.60;99.90;;;;;;5039980;28;20060;-63
2023/06/05 09:20:47;;;;;;;5.53;3.22;;;17.70;99.50;;;;;;5022627;28;20045;-64
2023/06/05 09:23:27;;;;;;;7.93;4.82;;;17.70;99.40;;;;;;5043094;28;20333;-63
2023/06/05 09:25:56;;;;;;;5.22;3.55;;;17.90;99.50;;;;;;5039153;28;20169;-63
2023/06/05 09:28:22;;;;;;;5.47;3.80;;;17.90;99.60;;;;;;5033201;28;20049;-63
2023/06/05 09:30:58;;;;;;;5.78;3.88;;;18.10;99.60;;;;;;5020515;28;20037;-64
2023/06/05 09:33:29;;;;;;;7.82;4.60;;;18.00;99.50;;;;;;5041320;28;20041;-64
2023/06/05 09:36:02;;;;;;;4.93;4.00;;;18.00;99.30;;;;;;5022481;28;20143;-63
2023/06/05 09:38:28;;;;;;;6.55;3.90;;;18.00;99.40;;;;;;5042046;28;20037;-62
2023/06/05 09:41:04;;;;;;;6.43;4.05;;;17.80;99.30;;;;;;5034947;28;20029;-62
2023/06/05 09:43:30;;;;;;;6.65;4.78;;;17.80;99.60;;;;;;5034880;28;20080;-61
2023/06/05 09:45:56;;;;;;;5.35;3.58;;;17.70;99.50;;;;;;5033329;28;20097;-61
2023/06/05 09:48:22;;;;;;;5.60;4.28;;;17.70;99.70;;;;;;5040046;28;20041;-61
2023/06/05 09:50:47;;;;;;;6.90;4.22;;;17.70;99.60;;;;;;5029611;28;20037;-65
2023/06/05 09:53:16;;;;;;;6.75;4.18;;;18.00;99.80;;;;;;5036638;28;20557;-63
2023/06/05 09:55:42;;;;;;;6.50;4.80;;;18.30;99.50;;;;;;5042390;28;20496;-63
2023/06/05 09:58:13;;;;;;;5.03;3.78;;;18.30;99.00;;;;;;5058471;28;20488;-63
2023/06/05 10:00:41;;;;;;;5.95;3.88;;;18.40;99.20;;;;;;5035562;28;20060;-63
2023/06/05 10:03:17;;;;;;;4.95;3.67;;;18.40;98.70;;;;;;5005069;28;20041;-64
2023/06/05 10:05:44;;;;;;;5.82;3.60;;;18.50;98.70;;;;;;5041712;28;20071;-62
2023/06/05 10:08:14;;;;;;;4.28;3.63;;;18.70;99.00;;;;;;5037191;28;20047;-63
2023/06/05 10:10:41;;;;;;;4.72;3.75;;;18.90;98.60;;;;;;5016746;28;20045;-61
2023/06/05 10:13:07;;;;;;;5.40;3.47;;;18.90;97.70;;;;;;5036556;28;20049;-61
2023/06/05 10:15:34;;;;;;;8.35;3.45;;;18.70;98.20;;;;;;5037624;28;20037;-61
2023/06/05 10:18:01;;;;;;;5.80;4.25;;;18.80;98.60;;;;;;5034961;28;20114;-60
2023/06/05 10:20:27;;;;;;;4.22;3.45;;;19.00;98.00;;;;;;5037087;28;20116;-61
2023/06/05 10:22:54;;;;;;;5.90;3.90;;;19.00;97.70;;;;;;5034916;28;20084;-67
2023/06/05 10:25:21;;;;;;;12.77;5.05;;;18.90;97.50;;;;;;5031866;28;20576;-56
2023/06/05 10:28:04;;;;;;;5.38;3.78;;;18.90;98.00;;;;;;5040066;28;20037;-62
2023/06/05 10:31:13;;;;;;;8.45;3.83;;;18.80;97.80;;;;;;5038117;28;20151;-62
2023/06/05 10:34:11;;;;;;;4.78;3.03;;;19.00;98.10;;;;;;5028262;28;20053;-62
2023/06/05 10:36:58;;;;;;;8.52;4.55;;;19.00;97.40;;;;;;5043400;28;20041;-62
2023/06/05 10:39:26;;;;;;;6.60;4.25;;;18.90;97.60;;;;;;5039780;28;20043;-62
2023/06/05 10:41:52;;;;;;;6.60;4.13;;;18.80;97.40;;;;;;5021560;28;20040;-62
2023/06/05 10:44:37;;;;;;;5.88;4.10;;;18.70;97.80;;;;;;5021849;28;20118;-62
2023/06/05 10:47:32;;;;;;;7.80;4.13;;;18.90;97.70;;;;;;5037458;28;20061;-63
2023/06/05 10:50:19;;;;;;;5.72;4.10;;;19.10;97.20;;;;;;5040303;28;20110;-63
2023/06/05 10:52:46;;;;;;;5.20;4.05;;;19.30;96.30;;;;;;5020423;28;20037;-60
2023/06/05 10:55:12;;;;;;;7.15;3.92;;;19.40;96.70;;;;;;5036155;28;20061;-62
2023/06/05 10:58:08;;;;;;;6.07;4.50;;;19.60;97.00;;;;;;5042703;28;20050;-61
2023/06/05 11:00:35;;;;;;;5.35;3.40;;;19.70;96.60;;;;;;5037566;28;20052;-61
2023/06/05 11:03:01;;;;;;;4.68;4.07;;;19.70;96.70;;;;;;5027159;28;20040;-64
2023/06/05 11:05:29;;;;;;;6.10;4.65;;;19.90;97.00;;;;;;5035068;28;20071;-63
2023/06/05 11:08:13;;;;;;;5.03;4.03;;;19.60;96.30;;;;;;5013857;28;20080;-61
2023/06/05 11:11:02;;;;;;;4.20;3.55;;;19.50;96.10;;;;;;5057741;22;20897;-60
2023/06/05 11:13:55;;;;;;;7.50;3.65;;;19.40;96.40;;;;;;5044424;28;20482;-59
2023/06/05 11:16:28;;;;;;;6.18;3.42;;;19.60;97.10;;;;;;5028505;28;20049;-60
2023/06/05 11:18:54;;;;;;;4.68;3.63;;;19.90;96.50;;;;;;5008836;28;20075;-59
2023/06/05 11:21:20;;;;;;;5.82;4.00;;;20.00;97.00;;;;;;5020582;28;20045;-59
2023/06/05 11:24:16;;;;;;;5.28;3.83;;;19.90;96.00;;;;;;5023297;23;20060;-56
2023/06/05 11:26:42;;;;;;;6.28;3.95;;;19.90;95.40;;;;;;5023307;28;20045;-57
2023/06/05 11:29:15;;;;;;;5.15;3.70;;;19.80;95.90;;;;;;5003318;28;20049;-57
2023/06/05 11:31:43;;;;;;;8.80;4.57;;;19.90;95.60;;;;;;5022971;28;20376;-58
2023/06/05 11:34:13;;;;;;;10.02;4.25;;;20.00;95.90;;;;;;5025073;28;20073;-57
2023/06/05 11:36:40;;;;;;;5.32;3.95;;;20.10;95.90;;;;;;5022048;28;20037;-57
2023/06/05 11:39:07;;;;;;;19.50;6.03;;;20.30;96.10;;;;;;5018773;28;20248;-57
2023/06/05 11:41:34;;;;;;;6.07;4.03;;;20.60;96.10;;;;;;5025221;28;20106;-57
2023/06/05 11:44:00;;;;;;;52.88;11.30;;;20.40;95.20;;;;;;5022972;28;20084;-55
2023/06/05 11:46:42;;;;;;;12.57;5.63;;;20.30;95.00;;;;;;5022917;28;20080;-57
2023/06/05 11:49:28;;;;;;;6.55;3.70;;;20.30;95.40;;;;;;5022708;28;20214;-56
2023/06/05 11:51:55;;;;;;;6.95;4.47;;;20.30;95.30;;;;;;5001991;28;20397;-55
2023/06/05 11:54:26;;;;;;;6.18;3.95;;;20.40;95.50;;;;;;5024563;28;20037;-55
2023/06/05 11:56:58;;;;;;;5.68;3.75;;;20.60;95.00;;;;;;5007848;28;20064;-56
2023/06/05 12:00:19;;;;;;;4.15;3.55;;;20.50;95.10;;;;;;5027957;28;20492;-54
2023/06/05 12:02:46;;;;;;;7.05;3.95;;;20.60;94.80;;;;;;5015097;28;20037;-56
2023/06/05 12:05:12;;;;;;;5.50;3.65;;;20.40;94.80;;;;;;5019346;28;20145;-57
2023/06/05 12:07:39;;;;;;;4.10;3.20;;;20.40;95.20;;;;;;5017676;28;20558;-56
2023/06/05 12:10:09;;;;;;;4.47;3.38;;;20.60;95.00;;;;;;5017653;28;20053;-57
2023/06/05 12:12:48;;;;;;;5.15;3.58;;;20.80;95.00;;;;;;5016375;28;20144;-56
2023/06/05 12:15:18;;;;;;;4.78;3.10;;;20.80;94.30;;;;;;5017603;28;20474;-56
2023/06/05 12:17:50;;;;;;;4.13;3.05;;;20.70;94.80;;;;;;5019729;28;20103;-56
2023/06/05 12:20:20;;;;;;;4.43;3.63;;;20.80;95.00;;;;;;5021403;28;20071;-56
2023/06/05 12:22:46;;;;;;;5.35;3.85;;;20.90;94.70;;;;;;5019982;28;20061;-56
2023/06/05 12:25:17;;;;;;;5.15;3.67;;;21.00;94.60;;;;;;5004100;28;20085;-56
2023/06/05 12:27:44;;;;;;;4.75;4.20;;;21.00;94.30;;;;;;5014533;28;20069;-56
2023/06/05 12:30:10;;;;;;;5.93;4.38;;;21.20;94.20;;;;;;5019450;28;20072;-57
2023/06/05 12:32:36;;;;;;;6.53;4.53;;;21.30;94.00;;;;;;5017986;28;20147;-56
2023/06/05 12:35:01;;;;;;;7.13;4.57;;;21.40;94.20;;;;;;5014079;28;20273;-57
2023/06/05 12:37:34;;;;;;;7.15;4.80;;;21.40;93.90;;;;;;5020621;28;20627;-57
2023/06/05 12:40:01;;;;;;;5.90;4.72;;;21.30;93.80;;;;;;5019321;28;20484;-54
2023/06/05 12:42:28;;;;;;;7.63;5.43;;;21.30;93.70;;;;;;5005954;28;20061;-56
2023/06/05 12:44:54;;;;;;;5.22;4.40;;;21.40;93.20;;;;;;5021872;28;20053;-56
2023/06/05 12:47:20;;;;;;;6.05;5.25;;;21.60;93.90;;;;;;5023343;28;20150;-57
2023/06/05 12:49:46;;;;;;;8.32;5.00;;;21.60;93.30;;;;;;5025014;28;20566;-57
2023/06/05 12:52:12;;;;;;;5.68;4.90;;;21.50;93.10;;;;;;5028017;28;20053;-57
2023/06/05 12:54:38;;;;;;;6.68;5.05;;;21.20;93.30;;;;;;5026287;28;20136;-57
2023/06/05 12:57:07;;;;;;;5.53;4.53;;;21.10;93.20;;;;;;5013738;28;20527;-56
2023/06/05 12:59:33;;;;;;;7.22;5.43;;;21.10;93.80;;;;;;5013829;28;20033;-57
2023/06/05 13:01:59;;;;;;;7.28;5.18;;;21.10;94.00;;;;;;5027458;28;20041;-57
2023/06/05 13:04:25;;;;;;;5.80;4.95;;;21.10;93.60;;;;;;5028183;28;20056;-57
2023/06/05 13:06:50;;;;;;;8.32;5.85;;;20.90;93.10;;;;;;5008337;28;20111;-57